Terminal Aerodrome Forecast
Issued by NWS

Home | Current Version | Previous Version | Text Only | Print | Product List | Glossary On
Versions: 1 2 3 4 5 6 7 8 9 10 11 12 13 14 15 16 17 18 19 20
000
FTUS46 KPDT 202100 AAC
TAFBDN
TAF AMD
KBDN 202144Z 2022/2118 33010KT P6SM -SHRA BKN040 BKN090
      TEMPO 2022/2024 2SM RA BR SCT002 BKN015
     FM210300 21007KT P6SM SCT100
     FM210900 21007KT P6SM SCT030 BKN070=

USA.gov is the U.S. government's official web portal to all federal, state and local government web resources and services.